Airfield :
LOGIN :

Register | Disclaimer

   EN    FR    IT 

 










Legend :    VFR   Marginal VFR   IFR   Intensive IFR   Very Intensive IFR
Visi :
Ceiling :
>= 8 km
>= 3000ft
5 to 8 km
1000 to 3000 ft
1500m to 5 km
500 to 1000 ft
800 to 1500m
200 to 500 ft
< 800m
< 200 ft
Symbols :   Thunderstorms  Fog  Heavy snow  Heavy precipitations  Wind > 20 kt
SIGMETs :     Misc.  Thunderstorms  Icing  Turbulence  Mountain Waves  Volcanic Ashes






- Airport Elevation : 1213 ft
- IATA code : SCQ


LEST - Santiago de Compostela

CURRENT METAR :
  • 280630Z VRB02KT 9999 SCT004 BKN008 OVC018 09/08 Q1019 TEMPO 1500 BCFG

EXPIRED METARs :
  • 280600Z 26004KT 170V330 9999 BKN005 BKN010 09/09 Q1019 TEMPO 1500 BCFG
  • 280530Z 24004KT 200V280 9999 BKN006 BKN018 09/08 Q1019 TEMPO 1500 BCFG
  • 280500Z 22006KT 200V260 9999 FEW007 SCT034 08/08 Q1019 TEMPO 1500 BCFG
  • 280430Z 23004KT 190V270 9999 FEW008 SCT028 08/08 Q1019 TEMPO 1500 BCFG
  • 280400Z 24004KT 200V290 9999 SCT008 BKN032 08/07 Q1019 TEMPO 1500 BCFG

TAF TAF LEST
Valid from the 28 at 06:00 until the 29 at 06:00 UTC


280500Z 2806/2906 24009KT 9999 SCT010 BKN020 TX11/2814Z TN07/2807Z
TEMPO 2806/2810 3000 BR BKN010
PROB40
TEMPO 2806/2809 1500 BR BCFG BKN005
PROB40
TEMPO 2806/2809 0800 BCFG BKN002
TEMPO 2818/2906 1500 RA BR BKN005 BKN010



MET'MAP, your aeronautical weather chart ! - Copyright ORBIFLY December 2007 - Disclaimer

ORBIFLY MET'MAP TEAM :

Programming & Development : Alexandra Zaïnal
Concept & original design : Baudouin d'Aumeries
Assistance for programming : Marc-Olivier Méhu
Technical & hardware support : Manuel Goepfert

Contact : metmap@orbifly.com




SOURCES & CREDITS :

   NOAA